Time;durP1;ratioP1;P1;durP2;ratioP2;P2;SDS_P1;SDS_P2;PMS_P1;PMS_P2;Temp;Humidity;BMP_temperature;BMP_pressure;BME280_temperature;BME280_humidity;BME280_pressure;Samples;Min_cycle;Max_cycle;Signal;HPM_P1;HPM_P2
2023/12/31 01:08:23;;;;;;;7.63;5.07;;;;;;;3.88;100.00;97437.94;5148767;27;20418;-67
2023/12/31 01:10:50;;;;;;;6.28;4.88;;;;;;;4.01;100.00;97435.59;5112872;27;20175;-67
2023/12/31 01:13:15;;;;;;;5.85;4.40;;;;;;;4.10;100.00;97433.75;5113184;27;20122;-67
2023/12/31 01:15:41;;;;;;;5.28;4.22;;;;;;;4.17;100.00;97430.25;5095824;27;20389;-66
2023/12/31 01:18:07;;;;;;;5.75;4.20;;;;;;;4.22;100.00;97425.31;5130144;27;20525;-65
2023/12/31 01:20:33;;;;;;;5.00;4.00;;;;;;;4.23;100.00;97418.25;5095659;27;20634;-66
2023/12/31 01:22:58;;;;;;;7.00;4.47;;;;;;;4.34;100.00;97428.34;5113691;27;20051;-66
2023/12/31 01:25:25;;;;;;;7.13;4.85;;;;;;;4.34;100.00;97428.34;5081230;27;20039;-66
2023/12/31 01:27:53;;;;;;;8.80;5.90;;;;;;;4.33;100.00;97431.97;5093117;28;20058;-67
2023/12/31 01:30:19;;;;;;;8.20;5.95;;;;;;;4.30;100.00;97442.84;5073778;27;20541;-66
2023/12/31 01:32:45;;;;;;;7.55;5.03;;;;;;;4.33;100.00;97445.94;5074276;28;20051;-66
2023/12/31 01:35:12;;;;;;;7.85;4.63;;;;;;;4.33;100.00;97442.50;5057549;28;20047;-67
2023/12/31 01:37:38;;;;;;;6.93;5.03;;;;;;;4.29;100.00;97449.09;5091641;28;20219;-66
2023/12/31 01:40:04;;;;;;;10.13;5.88;;;;;;;4.21;100.00;97442.06;5091239;27;20175;-66
2023/12/31 01:42:30;;;;;;;6.28;5.07;;;;;;;4.21;100.00;97451.75;5074728;28;20143;-66
2023/12/31 01:44:56;;;;;;;6.32;4.95;;;;;;;4.17;100.00;97456.53;5108331;28;20505;-65
2023/12/31 01:47:22;;;;;;;9.38;6.20;;;;;;;4.05;100.00;97441.31;5093959;28;20054;-65
2023/12/31 01:49:49;;;;;;;8.98;5.40;;;;;;;4.13;100.00;97449.16;5060799;27;20040;-65
2023/12/31 01:52:16;;;;;;;10.52;6.07;;;;;;;4.11;100.00;97451.94;5093941;28;20035;-66
2023/12/31 01:54:41;;;;;;;7.40;5.40;;;;;;;4.15;100.00;97447.19;5077738;28;20043;-65
2023/12/31 01:57:09;;;;;;;9.80;5.97;;;;;;;4.15;100.00;97447.19;5094091;28;20039;-66
2023/12/31 01:59:35;;;;;;;8.50;5.20;;;;;;;4.16;100.00;97440.94;5128389;27;20050;-65
2023/12/31 02:02:01;;;;;;;8.30;5.37;;;;;;;4.19;100.00;97446.66;5115668;27;20141;-66
2023/12/31 02:04:33;;;;;;;8.03;5.27;;;;;;;4.25;100.00;97445.16;5116553;27;20137;-65
2023/12/31 02:07:02;;;;;;;8.70;5.93;;;;;;;4.25;100.00;97443.34;5134330;27;20061;-66
2023/12/31 02:09:28;;;;;;;9.90;5.13;;;;;;;4.35;100.00;97443.16;5101486;27;20035;-65
2023/12/31 02:11:55;;;;;;;6.40;5.10;;;;;;;4.35;100.00;97454.44;5101457;27;20423;-66
2023/12/31 02:14:21;;;;;;;9.40;6.32;;;;;;;4.31;100.00;97445.28;5101064;27;20043;-65
2023/12/31 02:16:46;;;;;;;8.55;5.47;;;;;;;4.37;100.00;97446.41;5100524;27;20043;-66
2023/12/31 02:19:12;;;;;;;8.07;5.37;;;;;;;4.38;100.00;97448.84;5084542;27;20043;-67
2023/12/31 02:21:38;;;;;;;8.60;5.70;;;;;;;4.42;100.00;97446.72;5118205;27;20047;-65
2023/12/31 02:24:04;;;;;;;10.80;5.78;;;;;;;4.39;100.00;97444.44;5101358;27;20061;-66
2023/12/31 02:26:31;;;;;;;15.17;6.87;;;;;;;4.42;100.00;97444.06;5084235;27;20100;-65
2023/12/31 02:28:57;;;;;;;8.63;5.57;;;;;;;4.34;100.00;97452.00;5118106;27;20143;-65
2023/12/31 02:31:23;;;;;;;11.10;6.47;;;;;;;4.33;100.00;97448.56;5117339;27;20157;-66
2023/12/31 02:33:49;;;;;;;10.03;6.20;;;;;;;4.36;100.00;97455.28;5100068;27;20422;-66
2023/12/31 02:36:15;;;;;;;9.23;5.70;;;;;;;4.34;100.00;97450.19;5099572;27;20146;-67
2023/12/31 02:38:41;;;;;;;11.07;6.70;;;;;;;4.31;100.00;97447.09;5100043;27;20213;-66
2023/12/31 02:41:07;;;;;;;9.73;6.03;;;;;;;4.34;100.00;97450.19;5082950;27;20067;-66
2023/12/31 02:43:33;;;;;;;9.70;5.75;;;;;;;4.32;100.00;97452.16;5116705;27;20443;-66
2023/12/31 02:45:58;;;;;;;10.20;6.30;;;;;;;4.28;100.00;97458.78;5099297;27;20039;-65
2023/12/31 02:48:24;;;;;;;11.55;6.53;;;;;;;4.30;100.00;97448.91;5117072;27;20129;-66
2023/12/31 02:50:50;;;;;;;14.85;7.03;;;;;;;4.29;100.00;97459.59;5116762;27;20386;-66
2023/12/31 02:53:16;;;;;;;10.37;6.70;;;;;;;4.29;100.00;97459.59;5099176;27;20038;-68
2023/12/31 02:55:41;;;;;;;12.18;7.22;;;;;;;4.25;100.00;97455.66;5116754;27;20039;-66
2023/12/31 02:58:07;;;;;;;10.43;6.67;;;;;;;4.28;100.00;97457.94;5116783;27;20042;-66
2023/12/31 03:00:33;;;;;;;9.87;6.50;;;;;;;4.26;100.00;97452.84;5099248;27;20481;-66
2023/12/31 03:02:59;;;;;;;11.97;7.27;;;;;;;4.22;100.00;97446.31;5099258;27;20482;-65
2023/12/31 03:05:24;;;;;;;12.87;7.73;;;;;;;4.20;100.00;97445.66;5133631;27;20051;-66
2023/12/31 03:07:50;;;;;;;12.97;7.10;;;;;;;4.19;100.00;97451.09;5133017;27;20104;-66
2023/12/31 03:10:16;;;;;;;10.67;7.30;;;;;;;4.22;100.00;97453.38;5116354;27;20042;-68
2023/12/31 03:12:43;;;;;;;9.80;6.27;;;;;;;4.21;100.00;97449.13;5083103;27;20039;-66
2023/12/31 03:15:09;;;;;;;10.43;6.20;;;;;;;4.26;100.00;97444.19;5099006;27;20066;-66
2023/12/31 03:17:36;;;;;;;7.60;5.37;;;;;;;4.28;100.00;97450.88;5116142;27;20054;-65
2023/12/31 03:20:02;;;;;;;10.60;6.50;;;;;;;4.27;100.00;97451.06;5114933;27;20031;-66
2023/12/31 03:22:29;;;;;;;9.23;5.43;;;;;;;4.25;100.00;97442.53;5132918;27;20035;-66
2023/12/31 03:24:55;;;;;;;8.93;6.27;;;;;;;4.29;100.00;97455.16;5115831;27;20367;-66
2023/12/31 03:27:21;;;;;;;7.55;5.00;;;;;;;4.31;100.00;97449.72;5099233;27;20467;-66
2023/12/31 03:29:49;;;;;;;7.13;4.93;;;;;;;4.29;100.00;97455.16;5098945;27;20036;-68
2023/12/31 03:32:15;;;;;;;7.30;5.07;;;;;;;4.35;100.00;97448.41;5099277;27;20039;-67
2023/12/31 03:34:41;;;;;;;7.43;5.47;;;;;;;4.23;100.00;97447.16;5081873;27;20038;-66
2023/12/31 03:37:07;;;;;;;8.30;5.70;;;;;;;4.30;100.00;97448.09;5098643;27;20517;-66
2023/12/31 03:39:32;;;;;;;8.13;5.40;;;;;;;4.23;100.00;97449.78;5115624;27;20051;-66
2023/12/31 03:41:58;;;;;;;6.83;4.90;;;;;;;4.25;100.00;97443.34;5098408;27;20089;-65
2023/12/31 03:44:24;;;;;;;6.43;4.50;;;;;;;4.30;100.00;97442.84;5098425;27;20103;-66
2023/12/31 03:46:49;;;;;;;8.20;5.10;;;;;;;4.31;100.00;97447.09;5132443;27;20047;-67
2023/12/31 03:49:15;;;;;;;6.43;4.60;;;;;;;4.37;100.00;97451.66;5098701;27;20502;-66
2023/12/31 03:51:41;;;;;;;5.63;4.50;;;;;;;4.32;100.00;97449.53;5098253;27;20497;-67
2023/12/31 03:54:08;;;;;;;7.70;4.72;;;;;;;4.27;100.00;97445.81;5098124;27;20050;-66
2023/12/31 03:56:34;;;;;;;5.75;4.57;;;;;;;4.26;100.00;97444.19;5098458;27;20169;-66
2023/12/31 03:59:00;;;;;;;5.95;4.35;;;;;;;4.29;100.00;97443.84;5098313;27;20189;-65
2023/12/31 04:01:26;;;;;;;6.38;4.45;;;;;;;4.27;100.00;97440.56;5114943;27;20035;-66
2023/12/31 04:03:51;;;;;;;5.57;4.53;;;;;;;4.27;100.00;97440.56;5097949;27;20466;-66
2023/12/31 04:06:17;;;;;;;5.43;4.33;;;;;;;4.21;100.00;97439.44;5099399;27;20069;-66
2023/12/31 04:08:43;;;;;;;6.47;4.47;;;;;;;4.10;100.00;97437.19;5081401;27;20133;-66
2023/12/31 04:11:09;;;;;;;5.13;4.25;;;;;;;4.14;100.00;97440.28;5115030;27;20053;-66
2023/12/31 04:13:34;;;;;;;6.13;4.30;;;;;;;4.11;100.00;97440.63;5097798;27;20039;-66
2023/12/31 04:16:01;;;;;;;5.00;4.20;;;;;;;4.12;100.00;97437.81;5114812;27;20332;-66
2023/12/31 04:18:26;;;;;;;6.18;4.55;;;;;;;4.17;100.00;97437.31;5097835;27;20058;-66
2023/12/31 04:20:52;;;;;;;5.00;4.17;;;;;;;4.18;100.00;97437.13;5114895;27;20096;-66
2023/12/31 04:23:18;;;;;;;5.17;4.37;;;;;;;4.12;100.00;97432.56;5081334;27;20593;-66
2023/12/31 04:25:44;;;;;;;4.37;3.93;;;;;;;4.16;100.00;97433.88;5131892;27;20055;-66
2023/12/31 04:28:09;;;;;;;8.30;4.13;;;;;;;4.15;100.00;97431.44;5097721;27;20142;-66
2023/12/31 04:30:37;;;;;;;5.87;3.93;;;;;;;4.22;100.00;97432.38;5097558;27;20047;-66
2023/12/31 04:33:03;;;;;;;4.13;3.70;;;;;;;4.27;100.00;97437.94;5097751;27;20043;-66
2023/12/31 04:35:30;;;;;;;6.20;4.57;;;;;;;4.27;100.00;97435.31;5097910;27;20035;-66
2023/12/31 04:37:55;;;;;;;4.93;4.10;;;;;;;4.33;100.00;97434.59;5080604;27;20473;-66
2023/12/31 04:40:21;;;;;;;5.33;3.90;;;;;;;4.33;100.00;97427.56;5097901;27;20552;-69
2023/12/31 04:42:47;;;;;;;4.40;4.00;;;;;;;4.33;100.00;97432.81;5097527;28;20047;-65
2023/12/31 04:45:13;;;;;;;5.03;4.30;;;;;;;4.29;100.00;97435.97;5097451;27;20031;-66
2023/12/31 04:47:39;;;;;;;4.77;3.93;;;;;;;4.35;100.00;97430.00;5097098;27;20057;-68
2023/12/31 04:50:05;;;;;;;4.23;3.70;;;;;;;4.34;100.00;97436.22;5113971;27;20571;-66
2023/12/31 04:52:32;;;;;;;4.40;4.00;;;;;;;4.33;100.00;97445.13;5097112;27;20035;-66
2023/12/31 04:54:58;;;;;;;4.00;3.57;;;;;;;4.35;100.00;97436.06;5114270;28;20054;-66
2023/12/31 04:57:24;;;;;;;4.70;3.58;;;;;;;4.37;100.00;97441.97;5114055;28;20035;-66
2023/12/31 04:59:50;;;;;;;4.70;3.80;;;;;;;4.40;100.00;97431.13;5097392;27;20374;-66
2023/12/31 05:02:15;;;;;;;3.87;3.57;;;;;;;4.40;100.00;97446.06;5114451;27;20370;-66
2023/12/31 05:04:41;;;;;;;3.87;3.40;;;;;;;4.43;100.00;97445.69;5097554;28;20620;-66
2023/12/31 05:07:11;;;;;;;3.20;2.78;;;;;;;4.49;100.00;97439.78;5097129;28;20417;-66
2023/12/31 05:09:37;;;;;;;3.20;2.78;;;;;;;4.51;100.00;97443.88;5131669;27;20035;-66
2023/12/31 05:12:03;;;;;;;4.67;3.60;;;;;;;4.43;100.00;97449.16;5097585;28;20046;-66
2023/12/31 05:14:29;;;;;;;5.77;3.50;;;;;;;4.35;100.00;97443.94;5097128;28;20039;-66
2023/12/31 05:16:54;;;;;;;3.33;3.03;;;;;;;4.46;100.00;97446.19;5114052;28;20394;-66
2023/12/31 05:19:20;;;;;;;2.72;2.53;;;;;;;4.53;100.00;97444.53;5097666;28;20039;-66
2023/12/31 05:21:46;;;;;;;3.20;2.90;;;;;;;4.43;100.00;97448.34;5114357;28;20051;-66
2023/12/31 05:24:12;;;;;;;3.80;3.33;;;;;;;4.28;100.00;97448.25;5113793;28;20039;-66
2023/12/31 05:26:37;;;;;;;5.57;3.30;;;;;;;4.24;100.00;97448.78;5096737;28;20036;-66
2023/12/31 05:29:03;;;;;;;4.50;3.30;;;;;;;4.27;100.00;97454.53;5097094;27;20077;-66
2023/12/31 05:31:29;;;;;;;3.88;3.25;;;;;;;4.30;100.00;97456.81;5080074;28;20158;-66
2023/12/31 05:33:55;;;;;;;4.20;3.30;;;;;;;4.33;100.00;97458.25;5096521;28;20105;-66
2023/12/31 05:36:21;;;;;;;4.87;3.00;;;;;;;4.30;100.00;97458.59;5097094;28;20074;-65
2023/12/31 05:38:46;;;;;;;5.13;3.13;;;;;;;4.33;100.00;97458.25;5113553;27;20078;-65
2023/12/31 05:41:12;;;;;;;3.92;2.70;;;;;;;4.43;100.00;97464.09;5113657;28;20039;-65
2023/12/31 05:43:38;;;;;;;4.80;3.00;;;;;;;4.44;100.00;97468.38;5115300;27;20059;-65
2023/12/31 05:46:04;;;;;;;3.10;2.80;;;;;;;4.48;100.00;97470.50;5100331;27;20541;-66
2023/12/31 05:48:29;;;;;;;3.40;2.88;;;;;;;4.43;100.00;97464.94;5100385;27;20035;-66
2023/12/31 05:50:55;;;;;;;3.13;2.70;;;;;;;4.49;100.00;97472.13;5117679;27;20126;-68
2023/12/31 05:53:21;;;;;;;5.18;3.10;;;;;;;4.48;100.00;97477.56;5084109;27;20047;-66
2023/12/31 05:55:47;;;;;;;4.60;2.67;;;;;;;4.49;100.00;97472.13;5100602;27;20043;-68
2023/12/31 05:58:13;;;;;;;3.67;2.88;;;;;;;4.44;100.00;97473.63;5100800;27;20534;-65
2023/12/31 06:00:38;;;;;;;4.38;2.47;;;;;;;4.51;100.00;97470.16;5117105;27;20133;-67
2023/12/31 06:03:04;;;;;;;3.20;2.70;;;;;;;4.56;100.00;97473.09;5113190;28;20063;-66
2023/12/31 06:05:30;;;;;;;4.28;2.80;;;;;;;4.49;100.00;97472.13;5113566;28;20043;-67
2023/12/31 06:07:56;;;;;;;5.90;2.95;;;;;;;4.43;100.00;97471.97;5063573;28;20074;-66
2023/12/31 06:10:22;;;;;;;2.60;2.40;;;;;;;4.51;100.00;97474.56;5079997;28;20124;-66
2023/12/31 06:12:48;;;;;;;2.63;2.40;;;;;;;4.59;100.00;97479.78;5063169;28;20500;-66
2023/12/31 06:15:13;;;;;;;3.88;2.47;;;;;;;4.60;100.00;97484.88;5079658;28;20048;-65
2023/12/31 06:17:39;;;;;;;3.42;2.85;;;;;;;4.68;100.00;97481.38;5086421;27;20096;-65
2023/12/31 06:20:06;;;;;;;3.13;2.60;;;;;;;4.65;100.00;97477.28;5083879;27;20170;-67
2023/12/31 06:22:32;;;;;;;2.53;2.33;;;;;;;4.66;100.00;97478.91;5134344;27;20039;-67
2023/12/31 06:24:58;;;;;;;3.05;2.13;;;;;;;4.72;100.00;97483.47;5134660;27;20118;-67
2023/12/31 06:27:24;;;;;;;3.53;2.33;;;;;;;4.75;100.00;97484.97;5117818;27;20099;-66
2023/12/31 06:29:50;;;;;;;3.45;2.50;;;;;;;4.72;100.00;97486.13;5117065;27;20042;-65
2023/12/31 06:32:19;;;;;;;3.80;2.60;;;;;;;4.81;100.00;97492.16;5061807;28;20054;-66
2023/12/31 06:34:44;;;;;;;4.55;2.60;;;;;;;4.74;100.00;97481.50;5110907;28;20055;-65
2023/12/31 06:37:11;;;;;;;2.88;2.58;;;;;;;4.86;100.00;97484.53;5094196;28;20623;-66
2023/12/31 06:39:37;;;;;;;5.43;3.42;;;;;;;4.83;100.00;97485.72;5046363;28;20043;-66
2023/12/31 06:42:03;;;;;;;3.85;2.63;;;;;;;4.85;100.00;97488.16;5082411;28;20031;-66
2023/12/31 06:44:29;;;;;;;4.85;2.20;;;;;;;4.82;100.00;97478.00;5064649;28;20044;-68
2023/12/31 06:46:55;;;;;;;2.28;2.08;;;;;;;4.86;100.00;97489.78;5063026;28;20052;-66
2023/12/31 06:49:22;;;;;;;2.90;2.28;;;;;;;4.87;100.00;97488.81;5078239;28;20066;-65
2023/12/31 06:51:47;;;;;;;2.78;2.08;;;;;;;4.88;100.00;97493.09;5061119;28;20043;-65
2023/12/31 06:54:14;;;;;;;3.13;2.40;;;;;;;4.96;100.00;97496.50;5078292;28;20052;-65
2023/12/31 06:56:39;;;;;;;3.15;2.35;;;;;;;4.96;100.00;97496.50;5044735;28;20048;-68
2023/12/31 06:59:05;;;;;;;2.72;2.20;;;;;;;5.00;100.00;97496.94;5061456;28;20486;-66
2023/12/31 07:01:31;;;;;;;2.28;2.08;;;;;;;4.97;100.00;97499.91;5061296;28;20040;-65
2023/12/31 07:03:57;;;;;;;3.78;2.10;;;;;;;4.94;100.00;97495.00;5059291;28;20047;-66
2023/12/31 07:06:24;;;;;;;2.15;1.92;;;;;;;4.95;100.00;97497.47;5060737;28;20134;-65
2023/12/31 07:08:50;;;;;;;1.98;1.77;;;;;;;4.98;100.00;97493.69;5081759;27;20134;-66
2023/12/31 07:11:16;;;;;;;4.75;2.35;;;;;;;5.01;100.00;97503.84;5098966;27;20050;-64
2023/12/31 07:13:43;;;;;;;3.03;1.80;;;;;;;5.06;100.00;97507.59;5132924;27;20039;-65
2023/12/31 07:16:09;;;;;;;2.03;1.70;;;;;;;5.05;100.00;97502.50;5133940;27;20072;-64
2023/12/31 07:18:36;;;;;;;2.03;1.60;;;;;;;5.07;100.00;97513.69;5133177;27;20062;-65
2023/12/31 07:21:03;;;;;;;1.75;1.60;;;;;;;5.02;100.00;97501.06;5099176;27;20039;-66
2023/12/31 07:23:28;;;;;;;1.80;1.70;;;;;;;4.99;100.00;97505.84;5099443;27;20542;-66
2023/12/31 07:25:54;;;;;;;1.83;1.50;;;;;;;5.01;100.00;97511.75;5115614;27;20046;-64
2023/12/31 07:28:20;;;;;;;1.50;1.40;;;;;;;5.03;100.00;97512.38;5116216;27;20039;-66
2023/12/31 07:30:46;;;;;;;1.77;1.50;;;;;;;5.04;100.00;97509.56;5098752;27;20039;-65
2023/12/31 07:33:12;;;;;;;2.05;1.50;;;;;;;5.15;100.00;97519.69;5098147;27;20042;-65
2023/12/31 07:35:37;;;;;;;1.17;1.10;;;;;;;5.19;100.00;97510.47;5132016;27;20039;-65
2023/12/31 07:38:05;;;;;;;2.78;1.30;;;;;;;5.21;100.00;97516.34;5115235;27;20137;-67
2023/12/31 07:40:31;;;;;;;1.65;1.30;;;;;;;5.19;100.00;97520.16;5098647;27;20046;-71
2023/12/31 07:42:57;;;;;;;1.92;1.45;;;;;;;5.23;100.00;97524.88;5096391;27;20047;-66
2023/12/31 07:45:23;;;;;;;2.60;1.70;;;;;;;5.30;100.00;97518.91;5098356;27;20031;-65
2023/12/31 07:47:49;;;;;;;1.77;1.60;;;;;;;5.29;100.00;97525.19;5098092;27;20042;-66
2023/12/31 07:50:15;;;;;;;1.40;1.30;;;;;;;5.38;100.00;97524.97;5095861;27;20039;-66
2023/12/31 07:52:41;;;;;;;1.73;1.38;;;;;;;5.35;100.00;97527.13;5115250;27;20031;-65
2023/12/31 07:55:10;;;;;;;1.50;1.40;;;;;;;5.38;100.00;97524.97;5097580;27;20808;-66
2023/12/31 07:57:36;;;;;;;1.40;1.30;;;;;;;5.42;100.00;97526.22;5093539;27;20039;-65
2023/12/31 08:00:07;;;;;;;1.40;1.30;;;;;;;5.49;100.00;97534.25;5097791;27;20478;-69
2023/12/31 08:02:39;;;;;;;1.65;1.55;;;;;;;5.35;100.00;97541.06;5081257;27;20053;-65
2023/12/31 08:05:05;;;;;;;1.70;1.45;;;;;;;5.35;100.00;97535.00;5097756;27;20134;-66
2023/12/31 08:07:31;;;;;;;2.28;1.40;;;;;;;5.39;100.00;97545.00;5115128;27;20051;-66
2023/12/31 08:09:57;;;;;;;2.78;1.33;;;;;;;5.35;100.00;97551.59;5081124;27;20050;-65
2023/12/31 08:12:24;;;;;;;1.35;1.23;;;;;;;5.42;100.00;97544.66;5115138;27;20031;-66
2023/12/31 08:14:51;;;;;;;1.73;1.55;;;;;;;5.40;100.00;97551.91;5115356;27;20099;-66
2023/12/31 08:17:17;;;;;;;1.75;1.15;;;;;;;5.44;100.00;97547.94;5081537;27;20047;-65
2023/12/31 08:19:43;;;;;;;2.30;1.38;;;;;;;5.48;100.00;97548.38;5094546;27;20049;-67
2023/12/31 08:22:09;;;;;;;1.60;1.30;;;;;;;5.40;100.00;97549.25;5095549;27;20043;-67
2023/12/31 08:24:34;;;;;;;1.80;1.33;;;;;;;5.39;100.00;97552.06;5095142;27;20671;-67
2023/12/31 08:27:00;;;;;;;2.10;1.20;;;;;;;5.50;100.00;97560.38;5095433;27;20042;-67
2023/12/31 08:29:26;;;;;;;1.15;1.15;;;;;;;5.54;100.00;97553.75;5111989;27;20088;-66
2023/12/31 08:31:53;;;;;;;1.45;1.20;;;;;;;5.61;100.00;97562.59;5094852;27;20039;-69
2023/12/31 08:34:19;;;;;;;1.88;1.08;;;;;;;5.64;100.00;97558.78;5078346;27;20043;-68
2023/12/31 08:36:45;;;;;;;1.40;1.30;;;;;;;5.46;100.00;97569.63;5092895;27;20095;-72
2023/12/31 08:39:11;;;;;;;1.50;1.40;;;;;;;5.54;100.00;97564.28;5076314;27;20057;-69
2023/12/31 08:41:37;;;;;;;1.48;1.38;;;;;;;5.57;100.00;97569.19;5035874;28;20048;-69
2023/12/31 08:44:03;;;;;;;2.75;1.30;;;;;;;5.60;100.00;97563.59;5052720;28;20052;-69
2023/12/31 08:46:30;;;;;;;1.17;1.08;;;;;;;5.66;100.00;97570.78;5017311;28;20062;-67
2023/12/31 08:48:56;;;;;;;2.50;1.25;;;;;;;5.74;100.00;97575.16;5064960;28;20051;-66
2023/12/31 08:51:22;;;;;;;2.65;1.10;;;;;;;5.69;100.00;97580.16;5049427;28;20044;-66
2023/12/31 08:53:48;;;;;;;1.83;1.20;;;;;;;5.68;100.00;97579.31;5034410;28;20046;-66
2023/12/31 08:56:13;;;;;;;1.25;1.10;;;;;;;5.65;100.00;97576.22;5052863;28;20075;-67
2023/12/31 08:58:39;;;;;;;1.00;1.00;;;;;;;5.63;100.00;97584.28;5036593;28;20411;-66
2023/12/31 09:01:05;;;;;;;1.27;1.17;;;;;;;5.58;100.00;97597.16;5052743;28;20059;-68
2023/12/31 09:03:31;;;;;;;1.15;1.13;;;;;;;5.47;100.00;97592.34;5020062;28;20039;-64
2023/12/31 09:05:57;;;;;;;1.33;1.23;;;;;;;5.49;100.00;97598.22;5035208;28;20055;-66
2023/12/31 09:08:23;;;;;;;3.78;1.70;;;;;;;5.46;100.00;97588.03;5018978;28;20043;-65
2023/12/31 09:10:49;;;;;;;1.48;1.38;;;;;;;5.47;100.00;97594.13;5069375;28;20144;-67
2023/12/31 09:13:15;;;;;;;1.20;1.10;;;;;;;5.44;100.00;97600.56;5059847;28;20048;-66
2023/12/31 09:15:43;;;;;;;1.88;1.20;;;;;;;5.49;100.00;97602.69;5092701;28;20046;-67
2023/12/31 09:18:09;;;;;;;1.30;1.20;;;;;;;5.55;100.00;97608.03;5095318;27;20126;-67
2023/12/31 09:20:35;;;;;;;1.30;1.20;;;;;;;5.58;100.00;97606.88;5095941;27;20031;-66
2023/12/31 09:23:01;;;;;;;1.88;1.77;;;;;;;5.51;100.00;97609.41;5080073;27;20130;-67
2023/12/31 09:25:27;;;;;;;1.77;1.52;;;;;;;5.56;100.00;97614.13;5098269;27;20043;-66
2023/12/31 09:27:53;;;;;;;1.48;1.20;;;;;;;5.61;100.00;97611.81;5076961;28;20373;-68
2023/12/31 09:30:19;;;;;;;1.60;1.27;;;;;;;5.60;100.00;97612.78;5026829;28;20571;-66
2023/12/31 09:32:45;;;;;;;1.00;1.00;;;;;;;5.66;100.00;97615.53;5033616;28;20536;-67
2023/12/31 09:35:11;;;;;;;2.30;1.20;;;;;;;5.53;100.00;97607.41;5041146;28;20474;-66
2023/12/31 09:37:37;;;;;;;1.80;1.40;;;;;;;5.50;100.00;97612.22;5049590;28;20048;-66
2023/12/31 09:40:03;;;;;;;2.58;1.48;;;;;;;5.49;100.00;97614.00;5033307;28;20526;-66
2023/12/31 09:42:50;;;;;;;1.38;1.27;;;;;;;5.65;100.00;97619.16;5021015;28;20080;-65
2023/12/31 09:45:28;;;;;;;2.55;1.70;;;;;;;5.63;100.00;97613.25;5044678;28;20052;-65
2023/12/31 09:47:54;;;;;;;1.60;1.50;;;;;;;5.61;100.00;97615.25;5032713;28;20055;-67
2023/12/31 09:50:25;;;;;;;1.83;1.55;;;;;;;5.73;100.00;97624.38;5032960;28;20481;-67
2023/12/31 09:52:54;;;;;;;1.50;1.40;;;;;;;5.72;100.00;97621.94;5041825;28;20056;-67
2023/12/31 09:55:20;;;;;;;2.95;1.30;;;;;;;5.76;100.00;97626.66;5030879;28;20052;-67
2023/12/31 09:57:47;;;;;;;3.20;1.70;;;;;;;5.79;100.00;97623.66;5034670;28;20060;-66
2023/12/31 10:00:15;;;;;;;2.13;1.55;;;;;;;5.75;100.00;97622.38;5042575;28;20074;-66
2023/12/31 10:02:55;;;;;;;3.38;1.60;;;;;;;5.69;100.00;97625.72;5097391;27;20105;-67
2023/12/31 10:05:22;;;;;;;3.38;1.30;;;;;;;5.63;100.00;97636.16;5076531;27;20746;-66
2023/12/31 10:07:49;;;;;;;1.40;1.27;;;;;;;5.57;100.00;97637.66;5076824;27;20056;-66
2023/12/31 10:10:15;;;;;;;2.72;1.50;;;;;;;5.63;100.00;97636.16;5074703;27;20075;-66
2023/12/31 10:12:41;;;;;;;2.83;1.70;;;;;;;5.55;100.00;97629.09;5107987;27;20478;-67
2023/12/31 10:15:08;;;;;;;1.80;1.50;;;;;;;5.63;100.00;97631.69;5095886;27;20050;-67
2023/12/31 10:17:36;;;;;;;1.10;1.00;;;;;;;5.70;100.00;97639.72;5074217;27;20065;-67
2023/12/31 10:20:04;;;;;;;1.30;1.20;;;;;;;5.73;100.00;97642.81;5078910;27;20047;-68
2023/12/31 10:22:31;;;;;;;1.50;1.40;;;;;;;5.77;100.00;97641.47;5111482;27;20470;-71
2023/12/31 10:25:14;;;;;;;1.88;1.65;;;;;;;5.85;100.00;97646.69;5080929;27;20041;-68
2023/12/31 10:27:46;;;;;;;1.45;1.30;;;;;;;5.87;100.00;97643.88;5082903;27;20042;-69
2023/12/31 10:30:12;;;;;;;1.70;1.60;;;;;;;5.78;100.00;97645.72;5061335;28;20462;-72
2023/12/31 10:32:38;;;;;;;3.22;2.20;;;;;;;5.76;100.00;97645.09;5078118;28;20146;-68
2023/12/31 10:35:05;;;;;;;3.47;2.45;;;;;;;5.78;100.00;97648.34;5094901;28;20139;-68
2023/12/31 10:37:34;;;;;;;3.38;2.30;;;;;;;5.78;100.00;97648.34;5044699;28;20043;-69
2023/12/31 10:40:20;;;;;;;5.82;3.00;;;;;;;5.79;100.00;97650.00;5061206;28;20114;-68
2023/12/31 10:42:51;;;;;;;4.18;2.85;;;;;;;5.75;100.00;97651.34;5061540;28;20529;-68
2023/12/31 10:45:20;;;;;;;4.25;2.83;;;;;;;5.69;100.00;97644.16;5061892;28;20050;-67
2023/12/31 10:47:53;;;;;;;4.60;2.70;;;;;;;5.69;100.00;97640.72;5061129;28;20402;-69
2023/12/31 10:50:26;;;;;;;6.13;3.05;;;;;;;5.66;100.00;97646.31;5061933;28;20047;-70
2023/12/31 10:52:57;;;;;;;3.05;2.40;;;;;;;5.63;100.00;97641.41;5054900;28;20106;-67
2023/12/31 10:55:23;;;;;;;3.20;2.28;;;;;;;5.67;100.00;97648.78;5038293;28;20049;-69
2023/12/31 10:57:51;;;;;;;2.78;1.92;;;;;;;5.70;100.00;97643.16;5021470;28;20067;-69
2023/12/31 11:00:19;;;;;;;2.70;1.80;;;;;;;5.69;100.00;97652.03;5021303;28;20040;-68
2023/12/31 11:02:46;;;;;;;2.50;2.10;;;;;;;5.63;100.00;97644.84;5021229;28;20044;-71
2023/12/31 11:05:17;;;;;;;2.50;1.92;;;;;;;5.65;100.00;97644.66;5037802;28;20143;-68
2023/12/31 11:07:46;;;;;;;2.53;1.80;;;;;;;5.72;100.00;97643.78;4990564;28;20437;-69
2023/12/31 11:10:12;;;;;;;2.10;1.85;;;;;;;5.70;100.00;97644.97;5014185;28;20182;-69
2023/12/31 11:12:39;;;;;;;2.10;1.70;;;;;;;5.74;100.00;97648.88;5011885;28;20125;-69
2023/12/31 11:15:19;;;;;;;2.80;1.50;;;;;;;5.83;100.00;97651.31;4983133;28;20147;-70
2023/12/31 11:18:03;;;;;;;2.00;1.80;;;;;;;6.03;100.00;97649.00;5031613;28;20059;-68
2023/12/31 11:20:30;;;;;;;2.10;1.50;;;;;;;6.02;100.00;97652.66;5034296;28;20044;-66
2023/12/31 11:23:44;;;;;;;1.45;1.35;;;;;;;6.19;100.00;97652.34;5039674;28;20055;-69
2023/12/31 11:26:13;;;;;;;1.67;1.42;;;;;;;6.01;100.00;97656.28;5018847;28;20568;-69
2023/12/31 11:28:48;;;;;;;2.05;1.73;;;;;;;5.98;100.00;97640.84;5001089;28;20715;-68
2023/12/31 11:31:15;;;;;;;1.30;1.20;;;;;;;5.99;100.00;97650.38;4976172;28;20409;-68
2023/12/31 11:33:44;;;;;;;1.33;1.23;;;;;;;5.95;100.00;97644.63;4980149;28;20057;-69
2023/12/31 11:36:15;;;;;;;2.22;1.55;;;;;;;5.93;100.00;97644.00;4994815;28;20064;-69
2023/12/31 11:38:57;;;;;;;1.58;1.33;;;;;;;5.87;100.00;97655.25;4990905;28;20060;-69
2023/12/31 11:41:25;;;;;;;1.83;1.20;;;;;;;5.86;100.00;97658.88;5010564;28;20492;-68
2023/12/31 11:43:54;;;;;;;2.20;1.60;;;;;;;5.71;100.00;97663.22;4994990;28;20070;-69
2023/12/31 11:46:46;;;;;;;3.85;1.73;;;;;;;5.71;100.00;97655.31;5027431;28;20485;-69
2023/12/31 11:49:17;;;;;;;3.95;2.00;;;;;;;5.57;100.00;97663.16;4994286;28;20045;-68
2023/12/31 11:51:53;;;;;;;2.53;1.58;;;;;;;5.47;100.00;97652.88;5027601;28;20253;-68
2023/12/31 11:54:39;;;;;;;1.90;1.50;;;;;;;5.50;100.00;97652.53;4978476;28;20059;-68
2023/12/31 11:57:13;;;;;;;2.33;1.73;;;;;;;5.49;100.00;97650.88;5011332;28;20057;-68
2023/12/31 11:59:43;;;;;;;2.47;1.77;;;;;;;5.48;100.00;97653.66;5011283;28;20398;-70
2023/12/31 12:02:12;;;;;;;1.77;1.67;;;;;;;5.46;100.00;97661.75;5023397;28;20044;-68
2023/12/31 12:04:40;;;;;;;1.75;1.60;;;;;;;5.50;100.00;97664.84;5057357;28;20051;-74
2023/12/31 12:07:06;;;;;;;2.00;1.80;;;;;;;5.47;100.00;97667.84;4978343;28;20053;-72
2023/12/31 12:09:33;;;;;;;2.85;1.42;;;;;;;5.44;100.00;97690.06;4995067;28;20524;-71
2023/12/31 12:12:03;;;;;;;2.88;1.48;;;;;;;5.45;100.00;97686.44;4991860;28;20045;-69
2023/12/31 12:14:31;;;;;;;1.95;1.40;;;;;;;5.40;100.00;97678.22;4991143;28;20064;-72
2023/12/31 12:16:59;;;;;;;3.10;1.30;;;;;;;5.41;100.00;97679.06;4966596;28;20060;-71
2023/12/31 12:19:26;;;;;;;1.95;1.20;;;;;;;5.33;100.00;97687.81;4975533;28;20060;-70
2023/12/31 12:21:53;;;;;;;1.88;1.30;;;;;;;5.21;100.00;97683.94;4993953;28;20060;-74
2023/12/31 12:24:19;;;;;;;2.10;1.40;;;;;;;5.19;100.00;97691.19;4954388;28;20044;-73
2023/12/31 12:26:50;;;;;;;1.50;1.17;;;;;;;5.25;100.00;97687.84;4937087;28;20051;-71
2023/12/31 12:29:20;;;;;;;1.85;1.33;;;;;;;5.23;100.00;97687.19;4955772;28;20148;-71
2023/12/31 12:32:16;;;;;;;1.63;1.52;;;;;;;5.31;100.00;97695.06;4931769;29;20207;-71
2023/12/31 12:34:49;;;;;;;1.40;1.30;;;;;;;5.20;100.00;97698.06;4916615;28;20554;-71
2023/12/31 12:37:23;;;;;;;2.20;1.65;;;;;;;5.23;100.00;97701.19;4945789;28;20047;-71
2023/12/31 12:39:55;;;;;;;1.40;1.30;;;;;;;5.31;100.00;97700.31;4904008;28;20058;-70